Time;durP1;ratioP1;P1;durP2;ratioP2;P2;SDS_P1;SDS_P2;PMS_P1;PMS_P2;Temp;Humidity;BMP_temperature;BMP_pressure;BME280_temperature;BME280_humidity;BME280_pressure;Samples;Min_cycle;Max_cycle;Signal;HPM_P1;HPM_P2
2022/04/27 00:00:29;;;;;;;6.68;6.00;;;6.30;99.90;;;;;;5053757;28;20487;-65
2022/04/27 00:02:58;;;;;;;13.32;6.38;;;6.20;99.90;;;;;;5058672;28;20043;-65
2022/04/27 00:05:25;;;;;;;7.10;4.90;;;6.20;99.90;;;;;;5055340;28;20056;-64
2022/04/27 00:07:51;;;;;;;6.72;4.70;;;6.30;99.90;;;;;;5060283;28;20340;-65
2022/04/27 00:10:19;;;;;;;7.00;5.05;;;6.30;99.90;;;;;;5059241;28;20573;-65
2022/04/27 00:12:45;;;;;;;8.60;4.75;;;6.30;99.90;;;;;;5062842;28;20040;-65
2022/04/27 00:15:11;;;;;;;5.20;4.20;;;6.90;99.90;;;;;;5063420;28;20047;-65
2022/04/27 00:17:37;;;;;;;5.10;4.13;;;6.20;99.90;;;;;;5071012;28;20662;-63
2022/04/27 00:20:03;;;;;;;6.07;4.63;;;6.30;99.90;;;;;;5075948;28;20051;-62
2022/04/27 00:22:29;;;;;;;9.50;5.35;;;6.20;99.90;;;;;;5077269;28;20063;-63
2022/04/27 00:25:00;;;;;;;6.90;5.05;;;6.20;99.90;;;;;;5060314;28;20041;-63
2022/04/27 00:27:26;;;;;;;8.95;5.60;;;6.20;99.90;;;;;;5057287;28;20393;-63
2022/04/27 00:29:52;;;;;;;6.03;4.75;;;6.20;99.90;;;;;;5060420;28;20058;-63
2022/04/27 00:32:17;;;;;;;8.10;5.00;;;6.20;99.90;;;;;;5074874;28;20048;-63
2022/04/27 00:34:43;;;;;;;6.60;4.97;;;6.20;99.90;;;;;;5076025;28;20125;-63
2022/04/27 00:37:09;;;;;;;10.45;5.90;;;6.20;99.90;;;;;;5076144;28;20064;-63
2022/04/27 00:39:34;;;;;;;7.85;4.95;;;6.20;99.90;;;;;;5073960;28;20135;-63
2022/04/27 00:42:15;;;;;;;5.85;4.93;;;6.20;99.90;;;;;;5075233;28;20097;-63
2022/04/27 00:44:43;;;;;;;7.15;4.65;;;6.30;99.90;;;;;;5076609;28;20048;-63
2022/04/27 00:47:10;;;;;;;8.40;4.47;;;6.30;99.90;;;;;;5076437;28;20076;-63
2022/04/27 00:49:36;;;;;;;8.38;5.97;;;6.30;99.90;;;;;;5076905;28;20598;-64
2022/04/27 00:52:01;;;;;;;8.02;4.90;;;6.30;99.90;;;;;;5075666;28;20144;-63
2022/04/27 00:54:29;;;;;;;6.28;4.88;;;6.40;99.90;;;;;;5075621;28;20062;-63
2022/04/27 00:56:54;;;;;;;7.30;5.75;;;6.40;99.90;;;;;;5076727;28;20912;-63
2022/04/27 00:59:20;;;;;;;6.35;5.20;;;6.40;99.90;;;;;;5076010;28;20051;-63
2022/04/27 01:01:45;;;;;;;7.38;5.25;;;6.40;99.90;;;;;;5076410;28;20036;-62
2022/04/27 01:04:11;;;;;;;10.77;5.65;;;6.50;99.90;;;;;;5076117;28;20224;-62
2022/04/27 01:06:40;;;;;;;9.23;5.57;;;6.50;99.90;;;;;;5075630;28;20086;-62
2022/04/27 01:09:06;;;;;;;10.93;5.88;;;6.50;99.90;;;;;;5076618;28;20087;-63
2022/04/27 01:11:33;;;;;;;7.70;5.30;;;6.60;99.90;;;;;;5076643;28;20819;-63
2022/04/27 01:13:58;;;;;;;5.88;4.63;;;6.60;99.90;;;;;;5068684;28;20036;-63
2022/04/27 01:16:25;;;;;;;9.15;5.88;;;6.60;99.90;;;;;;5076542;28;20048;-63
2022/04/27 01:18:51;;;;;;;8.95;4.63;;;6.50;99.90;;;;;;5076303;28;20044;-63
2022/04/27 01:21:17;;;;;;;8.40;6.25;;;6.50;99.90;;;;;;5068696;28;20160;-63
2022/04/27 01:23:43;;;;;;;6.82;5.03;;;6.50;99.90;;;;;;5076377;28;20070;-63
2022/04/27 01:26:08;;;;;;;10.38;5.32;;;6.50;99.90;;;;;;5073780;28;20098;-63
2022/04/27 01:28:36;;;;;;;7.15;5.13;;;6.50;99.90;;;;;;5074572;28;20200;-64
2022/04/27 01:31:04;;;;;;;7.40;6.00;;;6.60;99.90;;;;;;5074346;28;20047;-63
2022/04/27 01:33:30;;;;;;;7.53;4.57;;;6.60;99.90;;;;;;5076683;28;20051;-63
2022/04/27 01:35:58;;;;;;;8.23;5.50;;;6.40;99.90;;;;;;5075600;28;20040;-63
2022/04/27 01:38:23;;;;;;;8.07;5.35;;;6.70;99.90;;;;;;5076230;28;20052;-63
2022/04/27 01:40:53;;;;;;;8.43;5.35;;;6.70;99.90;;;;;;5076072;28;20071;-64
2022/04/27 01:43:19;;;;;;;7.28;5.57;;;6.80;99.90;;;;;;5075198;28;20048;-63
2022/04/27 01:45:45;;;;;;;4.75;3.90;;;6.80;99.90;;;;;;5076027;28;20082;-63
2022/04/27 01:48:13;;;;;;;5.85;4.55;;;6.70;99.90;;;;;;5076123;28;20050;-63
2022/04/27 01:50:39;;;;;;;7.75;4.55;;;6.70;99.90;;;;;;5073972;28;20080;-63
2022/04/27 01:55:50;;;;;;;7.82;5.57;;;6.70;99.90;;;;;;5073130;28;20105;-64
2022/04/27 01:58:16;;;;;;;8.15;5.60;;;6.80;99.90;;;;;;5074976;28;20063;-64
2022/04/27 02:00:41;;;;;;;7.32;5.68;;;6.80;99.90;;;;;;5074750;28;20044;-64
2022/04/27 02:03:07;;;;;;;6.80;5.30;;;6.80;99.90;;;;;;5073443;28;20067;-64
2022/04/27 02:05:34;;;;;;;6.25;4.70;;;6.80;99.90;;;;;;5075174;28;20095;-64
2022/04/27 02:08:00;;;;;;;6.45;5.85;;;6.80;99.90;;;;;;5075118;28;20148;-64
2022/04/27 02:10:26;;;;;;;9.88;5.32;;;6.80;99.90;;;;;;5074336;28;20044;-64
2022/04/27 02:12:51;;;;;;;8.50;4.75;;;6.90;99.90;;;;;;5074854;28;20052;-64
2022/04/27 02:15:17;;;;;;;7.60;5.55;;;6.90;99.90;;;;;;5074966;28;20052;-64
2022/04/27 02:17:42;;;;;;;9.30;4.80;;;7.00;99.90;;;;;;5073283;28;20044;-64
2022/04/27 02:20:09;;;;;;;9.00;5.88;;;7.00;99.90;;;;;;5075380;28;20052;-64
2022/04/27 02:22:34;;;;;;;9.68;5.72;;;7.10;99.90;;;;;;5074229;28;20055;-64
2022/04/27 02:25:01;;;;;;;10.93;5.95;;;7.20;99.90;;;;;;5067469;28;20062;-64
2022/04/27 02:27:27;;;;;;;11.23;5.10;;;7.20;99.90;;;;;;5073933;28;20109;-64
2022/04/27 02:29:54;;;;;;;8.95;5.85;;;7.30;99.90;;;;;;5074862;28;20113;-64
2022/04/27 02:32:19;;;;;;;8.32;5.65;;;7.30;99.90;;;;;;5074432;28;20056;-64
2022/04/27 02:34:45;;;;;;;8.52;5.68;;;7.30;99.90;;;;;;5075130;28;20419;-64
2022/04/27 02:37:11;;;;;;;8.73;6.38;;;7.30;99.90;;;;;;5068704;28;20152;-63
2022/04/27 02:39:36;;;;;;;10.77;6.13;;;7.30;99.90;;;;;;5071573;28;20140;-64
2022/04/27 02:42:02;;;;;;;11.93;5.80;;;7.30;99.90;;;;;;5072561;28;20141;-64
2022/04/27 02:44:28;;;;;;;6.25;5.10;;;7.30;99.90;;;;;;5074196;28;20047;-64
2022/04/27 02:46:53;;;;;;;8.43;6.30;;;7.30;99.90;;;;;;5073364;28;20059;-64
2022/04/27 02:52:04;;;;;;;9.55;6.18;;;7.30;99.90;;;;;;5072642;28;20595;-64
2022/04/27 02:54:30;;;;;;;7.03;5.63;;;7.30;99.90;;;;;;5072311;28;20471;-64
2022/04/27 02:56:56;;;;;;;7.70;6.15;;;7.30;99.90;;;;;;5072359;28;20056;-64
2022/04/27 02:59:21;;;;;;;7.38;5.65;;;7.30;99.90;;;;;;5073231;28;20059;-64
2022/04/27 03:01:48;;;;;;;8.35;6.55;;;7.30;99.90;;;;;;5074110;28;20261;-64
2022/04/27 03:04:14;;;;;;;7.32;5.72;;;7.30;99.90;;;;;;5073435;28;20055;-64
2022/04/27 03:06:39;;;;;;;7.78;5.03;;;7.20;99.90;;;;;;5072765;28;20059;-64
2022/04/27 03:09:05;;;;;;;9.10;6.25;;;7.20;99.90;;;;;;5073463;28;20082;-64
2022/04/27 03:11:31;;;;;;;10.68;6.10;;;7.30;99.90;;;;;;5073526;28;20797;-64
2022/04/27 03:13:56;;;;;;;8.70;7.15;;;7.20;99.90;;;;;;5073722;28;20113;-64
2022/04/27 03:16:22;;;;;;;10.50;6.65;;;7.30;99.90;;;;;;5076533;28;20047;-64
2022/04/27 03:18:47;;;;;;;6.50;5.00;;;7.30;99.90;;;;;;5077840;28;20048;-64
2022/04/27 03:21:13;;;;;;;10.95;6.93;;;7.30;99.90;;;;;;5077152;28;20040;-64
2022/04/27 03:23:38;;;;;;;12.25;6.82;;;7.30;99.90;;;;;;5077760;28;20056;-64
2022/04/27 03:26:05;;;;;;;7.75;5.85;;;7.40;99.90;;;;;;5077328;28;20048;-64
2022/04/27 03:28:30;;;;;;;7.55;6.20;;;7.40;99.90;;;;;;5077363;28;20063;-64
2022/04/27 03:30:56;;;;;;;9.38;6.50;;;7.30;99.90;;;;;;5077517;28;20109;-64
2022/04/27 03:33:21;;;;;;;8.25;6.28;;;7.40;99.90;;;;;;5077285;28;20385;-64
2022/04/27 03:35:47;;;;;;;10.02;5.30;;;7.30;99.90;;;;;;5076972;28;20411;-64
2022/04/27 03:38:14;;;;;;;10.82;6.65;;;7.40;99.90;;;;;;5077269;28;20771;-64
2022/04/27 03:40:41;;;;;;;14.15;6.53;;;7.40;99.90;;;;;;5076941;28;20056;-64
2022/04/27 03:43:07;;;;;;;9.30;6.72;;;7.40;99.90;;;;;;5076898;28;20055;-64
2022/04/27 03:45:33;;;;;;;10.30;6.10;;;7.50;99.90;;;;;;5077447;28;20048;-64
2022/04/27 03:47:59;;;;;;;8.30;5.85;;;7.50;99.90;;;;;;5076954;28;20769;-64
2022/04/27 03:50:25;;;;;;;10.43;6.40;;;7.50;99.90;;;;;;5077594;28;20074;-64
2022/04/27 03:52:51;;;;;;;11.98;6.05;;;7.50;99.90;;;;;;5077195;28;20083;-63
2022/04/27 03:55:16;;;;;;;8.93;5.75;;;7.60;99.90;;;;;;5076451;28;20761;-64
2022/04/27 03:57:42;;;;;;;10.95;6.10;;;7.60;99.90;;;;;;5072540;28;20072;-64
2022/04/27 04:00:10;;;;;;;11.35;6.88;;;7.60;99.90;;;;;;5072771;28;20056;-64
2022/04/27 04:02:37;;;;;;;8.68;6.22;;;7.60;99.90;;;;;;5066796;28;20052;-64
2022/04/27 04:05:03;;;;;;;10.48;6.78;;;7.60;99.90;;;;;;5056949;28;20045;-64
2022/04/27 04:07:29;;;;;;;7.03;6.03;;;7.60;99.90;;;;;;5058617;28;20094;-64
2022/04/27 04:09:54;;;;;;;7.20;6.13;;;7.60;99.90;;;;;;5064709;28;20850;-64
2022/04/27 04:12:20;;;;;;;6.00;4.40;;;7.60;99.90;;;;;;5063794;28;20563;-64
2022/04/27 04:14:45;;;;;;;8.90;6.22;;;7.60;99.90;;;;;;5063146;28;20048;-64
2022/04/27 04:17:11;;;;;;;11.18;6.82;;;7.60;99.90;;;;;;5059052;28;20070;-64
2022/04/27 04:19:36;;;;;;;8.48;7.10;;;7.60;99.90;;;;;;5061650;28;20098;-64
2022/04/27 04:22:02;;;;;;;9.25;6.55;;;7.30;99.90;;;;;;5060714;28;20122;-64
2022/04/27 04:24:28;;;;;;;8.68;5.78;;;7.60;99.90;;;;;;5058669;28;20045;-64
2022/04/27 04:29:38;;;;;;;6.60;5.32;;;7.60;99.90;;;;;;5060171;28;20044;-64
2022/04/27 04:32:04;;;;;;;8.52;6.05;;;6.90;99.90;;;;;;5061926;28;20065;-64
2022/04/27 04:34:29;;;;;;;9.55;5.50;;;7.60;99.90;;;;;;5063416;28;20066;-64
2022/04/27 04:36:55;;;;;;;9.70;5.88;;;7.70;99.90;;;;;;5063901;28;20052;-64
2022/04/27 04:39:20;;;;;;;10.48;6.28;;;7.60;99.90;;;;;;5059463;28;20052;-64
2022/04/27 04:41:46;;;;;;;9.20;5.80;;;7.60;99.90;;;;;;5061102;28;20134;-64
2022/04/27 04:44:12;;;;;;;13.60;7.05;;;7.70;99.90;;;;;;5061263;28;20040;-64
2022/04/27 04:46:37;;;;;;;11.57;6.78;;;7.60;99.90;;;;;;5058861;28;20438;-63
2022/04/27 04:49:03;;;;;;;9.73;6.38;;;7.70;99.90;;;;;;5057755;28;20048;-63
2022/04/27 04:51:29;;;;;;;11.38;6.65;;;7.70;99.90;;;;;;5059607;28;20086;-63
2022/04/27 04:53:54;;;;;;;8.45;6.25;;;7.80;99.90;;;;;;5059773;28;20044;-63
2022/04/27 04:56:20;;;;;;;8.57;6.00;;;7.80;99.90;;;;;;5059485;28;20159;-63
2022/04/27 04:58:46;;;;;;;7.85;6.85;;;7.80;99.90;;;;;;5061427;28;20040;-63
2022/04/27 05:01:11;;;;;;;8.27;6.20;;;7.80;99.90;;;;;;5054173;28;20041;-63
2022/04/27 05:03:38;;;;;;;8.93;5.45;;;7.80;99.90;;;;;;5055191;28;20053;-63
2022/04/27 05:06:04;;;;;;;12.07;5.55;;;7.90;99.90;;;;;;5055059;28;20554;-63
2022/04/27 05:08:29;;;;;;;10.15;6.07;;;7.90;99.90;;;;;;5052963;28;20048;-63
2022/04/27 05:10:55;;;;;;;8.95;5.88;;;8.00;99.90;;;;;;5053816;28;20216;-63
2022/04/27 05:13:20;;;;;;;7.65;6.35;;;8.00;99.90;;;;;;5053881;28;20381;-63
2022/04/27 05:15:47;;;;;;;8.18;6.63;;;8.00;99.90;;;;;;5054692;28;20117;-64
2022/04/27 05:18:13;;;;;;;8.15;6.38;;;8.00;99.90;;;;;;5054819;28;20118;-65
2022/04/27 05:20:38;;;;;;;8.13;5.65;;;8.00;99.90;;;;;;5052303;28;20056;-65
2022/04/27 05:23:05;;;;;;;8.50;6.60;;;8.10;99.90;;;;;;5073501;28;20476;-65
2022/04/27 05:25:33;;;;;;;7.10;5.90;;;8.10;99.90;;;;;;5072445;28;20064;-65
2022/04/27 05:27:58;;;;;;;15.75;6.43;;;8.10;99.90;;;;;;5073169;28;20086;-64
2022/04/27 05:33:08;;;;;;;10.90;6.57;;;8.20;99.90;;;;;;5071513;28;20055;-65
2022/04/27 05:35:41;;;;;;;7.30;5.72;;;8.30;99.90;;;;;;5056199;28;20080;-64
2022/04/27 05:38:08;;;;;;;8.18;6.22;;;8.30;99.90;;;;;;5066425;28;20582;-65
2022/04/27 05:40:34;;;;;;;7.38;5.85;;;7.90;99.90;;;;;;5054448;28;20056;-64
2022/04/27 05:43:00;;;;;;;6.68;5.82;;;8.40;99.90;;;;;;5060127;28;20088;-65
2022/04/27 05:45:26;;;;;;;10.88;5.63;;;8.50;99.90;;;;;;5060776;28;20151;-65
2022/04/27 05:47:51;;;;;;;9.85;7.47;;;8.60;99.90;;;;;;5063005;28;20773;-64
2022/04/27 05:50:17;;;;;;;7.55;5.72;;;8.60;99.90;;;;;;5060484;28;20053;-65
2022/04/27 05:52:48;;;;;;;9.55;5.57;;;8.70;99.90;;;;;;5053207;28;20087;-65
2022/04/27 05:55:13;;;;;;;7.72;5.68;;;8.80;99.90;;;;;;5053392;28;20078;-65
2022/04/27 05:57:39;;;;;;;8.85;4.97;;;8.80;99.90;;;;;;5052005;28;20896;-67
2022/04/27 06:00:06;;;;;;;7.22;5.53;;;8.90;99.90;;;;;;5058818;28;20488;-65
2022/04/27 06:02:31;;;;;;;7.45;5.07;;;8.90;99.90;;;;;;5066134;28;20116;-65
2022/04/27 06:04:57;;;;;;;7.45;4.47;;;9.00;99.90;;;;;;5053570;28;20858;-65
2022/04/27 06:07:23;;;;;;;7.68;3.90;;;9.10;99.90;;;;;;5056281;28;20544;-64
2022/04/27 06:09:48;;;;;;;6.75;4.75;;;9.20;99.90;;;;;;5062309;28;20653;-65
2022/04/27 06:12:14;;;;;;;5.28;4.25;;;9.30;99.90;;;;;;5063692;28;20048;-65
2022/04/27 06:14:39;;;;;;;6.55;4.53;;;9.30;99.90;;;;;;5066507;28;20133;-65
2022/04/27 06:17:05;;;;;;;6.53;4.60;;;9.40;99.90;;;;;;5068617;28;20048;-65
2022/04/27 06:19:31;;;;;;;8.43;4.07;;;9.40;99.90;;;;;;5060152;28;20396;-65
2022/04/27 06:21:56;;;;;;;5.70;3.90;;;9.50;99.90;;;;;;5055039;28;20058;-65
2022/04/27 06:24:22;;;;;;;5.15;4.05;;;9.50;99.90;;;;;;5060433;28;21345;-65
2022/04/27 06:26:47;;;;;;;5.90;3.53;;;9.50;99.90;;;;;;5064264;28;20055;-65
2022/04/27 06:29:13;;;;;;;7.43;4.47;;;9.60;99.90;;;;;;5072618;28;20134;-65
2022/04/27 06:31:38;;;;;;;5.57;3.53;;;9.70;99.90;;;;;;5071798;28;20047;-65
2022/04/27 06:34:04;;;;;;;6.60;4.55;;;9.70;99.90;;;;;;5064084;28;20107;-65
2022/04/27 06:36:29;;;;;;;6.03;4.00;;;9.70;99.90;;;;;;5052266;28;20044;-65
2022/04/27 06:38:55;;;;;;;7.05;3.42;;;9.80;99.90;;;;;;5057688;28;20036;-65
2022/04/27 06:41:20;;;;;;;6.13;4.00;;;9.60;99.90;;;;;;5072506;28;20108;-63
2022/04/27 06:43:47;;;;;;;4.95;3.70;;;9.90;99.90;;;;;;4705822;28;10000164;-64
2022/04/27 06:46:13;;;;;;;5.70;3.63;;;9.90;99.90;;;;;;5052686;28;20066;-63
2022/04/27 06:48:39;;;;;;;6.13;3.88;;;10.00;99.90;;;;;;5051133;28;20049;-64
2022/04/27 06:51:04;;;;;;;5.10;3.08;;;10.00;99.90;;;;;;5056193;28;20596;-64
2022/04/27 06:53:30;;;;;;;4.28;3.88;;;10.10;99.90;;;;;;5063560;28;20106;-64
2022/04/27 06:55:55;;;;;;;3.22;2.65;;;10.30;99.90;;;;;;5052025;28;20078;-64
2022/04/27 06:58:21;;;;;;;4.30;2.65;;;10.30;99.90;;;;;;5059967;28;20047;-64
2022/04/27 07:00:46;;;;;;;3.40;3.10;;;10.40;99.90;;;;;;5055587;28;20561;-64
2022/04/27 07:03:12;;;;;;;3.55;2.50;;;10.50;99.90;;;;;;5061875;28;20060;-64
2022/04/27 07:05:38;;;;;;;5.15;2.97;;;10.40;99.90;;;;;;5053376;28;20072;-64
2022/04/27 07:08:05;;;;;;;3.90;2.55;;;10.70;99.90;;;;;;5054859;28;20827;-63
2022/04/27 07:10:36;;;;;;;4.88;2.80;;;10.80;99.90;;;;;;5054168;28;20048;-61
2022/04/27 07:13:03;;;;;;;4.28;2.20;;;10.80;99.90;;;;;;5060380;28;20803;-63
2022/04/27 07:15:28;;;;;;;8.27;2.97;;;10.90;99.90;;;;;;5054194;28;20052;-63
2022/04/27 07:17:54;;;;;;;1.63;1.52;;;11.00;99.90;;;;;;5068360;28;20063;-65
2022/04/27 07:20:19;;;;;;;1.73;1.60;;;11.00;99.90;;;;;;5066856;28;20060;-65
2022/04/27 07:22:45;;;;;;;1.40;1.30;;;11.00;97.60;;;;;;5068461;28;20059;-65
2022/04/27 07:25:11;;;;;;;2.42;1.50;;;11.00;98.20;;;;;;5069415;28;20040;-65
2022/04/27 07:27:37;;;;;;;2.65;1.92;;;11.10;98.50;;;;;;5068356;28;20045;-65
2022/04/27 07:30:03;;;;;;;4.68;1.80;;;11.20;98.10;;;;;;5068893;28;20878;-65
2022/04/27 07:32:29;;;;;;;3.58;1.98;;;11.20;97.40;;;;;;5056786;28;20068;-65
2022/04/27 07:34:54;;;;;;;1.77;1.63;;;11.20;97.30;;;;;;5051547;28;20047;-64
2022/04/27 07:37:20;;;;;;;2.55;2.33;;;11.20;96.70;;;;;;5052035;28;20044;-65
2022/04/27 07:39:45;;;;;;;2.72;2.50;;;11.20;97.10;;;;;;5052494;28;20131;-65
2022/04/27 07:42:11;;;;;;;8.02;2.67;;;11.20;96.60;;;;;;5052228;28;20047;-65
2022/04/27 07:44:36;;;;;;;4.95;2.40;;;11.20;96.60;;;;;;5052592;28;20041;-65
2022/04/27 07:47:02;;;;;;;4.55;2.28;;;11.20;96.40;;;;;;5050806;28;20124;-65
2022/04/27 07:49:28;;;;;;;5.10;2.75;;;11.30;96.80;;;;;;5052587;28;20048;-65
2022/04/27 07:51:54;;;;;;;3.50;2.03;;;11.30;96.20;;;;;;5052816;28;20523;-65
2022/04/27 07:54:20;;;;;;;4.15;3.03;;;11.30;95.80;;;;;;5050220;28;20242;-65
2022/04/27 07:56:45;;;;;;;3.80;2.53;;;11.30;95.00;;;;;;5052410;28;20054;-65
2022/04/27 07:59:11;;;;;;;4.35;2.30;;;11.30;94.60;;;;;;5051164;28;20125;-65
2022/04/27 08:01:36;;;;;;;7.05;2.22;;;11.40;95.60;;;;;;5052403;28;20132;-65
2022/04/27 08:04:02;;;;;;;5.78;2.50;;;11.50;95.30;;;;;;5055820;28;20052;-65
2022/04/27 08:06:27;;;;;;;5.13;2.17;;;11.50;94.80;;;;;;5056982;28;20048;-65
2022/04/27 08:08:53;;;;;;;2.17;1.90;;;11.60;93.80;;;;;;5055777;28;20117;-65
2022/04/27 08:11:19;;;;;;;2.80;2.10;;;11.70;94.80;;;;;;5055054;28;20045;-65
2022/04/27 08:13:45;;;;;;;3.60;2.05;;;11.90;94.50;;;;;;5070250;28;20087;-65
2022/04/27 08:16:11;;;;;;;5.55;2.10;;;11.90;93.80;;;;;;5072126;28;20048;-65
2022/04/27 08:18:40;;;;;;;2.95;1.92;;;12.10;93.90;;;;;;5069707;28;20137;-65
2022/04/27 08:21:15;;;;;;;3.03;1.90;;;12.10;93.90;;;;;;5072979;28;20043;-65
2022/04/27 08:23:45;;;;;;;2.08;1.88;;;12.20;93.40;;;;;;5072094;28;20117;-65
2022/04/27 08:26:11;;;;;;;3.83;2.33;;;12.20;93.10;;;;;;5072454;28;20054;-65
2022/04/27 08:28:38;;;;;;;4.40;1.95;;;12.30;92.50;;;;;;5071889;28;20082;-65
2022/04/27 08:31:06;;;;;;;5.20;2.10;;;12.40;92.90;;;;;;5071422;28;20062;-65
2022/04/27 08:33:32;;;;;;;4.40;2.35;;;12.30;92.50;;;;;;5061729;28;20067;-64
2022/04/27 08:35:58;;;;;;;2.45;2.03;;;12.30;92.90;;;;;;5055900;28;20885;-64
2022/04/27 08:38:24;;;;;;;2.97;1.60;;;12.30;93.00;;;;;;5055202;28;20130;-64
2022/04/27 08:40:49;;;;;;;3.63;2.03;;;12.40;92.90;;;;;;5059414;28;20040;-65
2022/04/27 08:43:15;;;;;;;2.72;1.80;;;12.20;92.00;;;;;;5057291;28;20059;-66
2022/04/27 08:45:43;;;;;;;2.42;2.00;;;12.20;92.90;;;;;;5058171;28;20251;-66
2022/04/27 08:48:10;;;;;;;5.68;2.90;;;12.30;92.60;;;;;;5058029;28;21177;-66
2022/04/27 08:50:36;;;;;;;4.97;2.85;;;12.30;92.20;;;;;;5059734;28;20044;-66
2022/04/27 08:53:02;;;;;;;4.03;2.50;;;12.40;92.40;;;;;;5057141;28;20592;-66
2022/04/27 08:55:28;;;;;;;1.98;1.83;;;12.50;92.40;;;;;;5056195;28;20049;-66
2022/04/27 08:58:14;;;;;;;3.25;1.95;;;12.50;92.50;;;;;;5054285;28;20147;-66
2022/04/27 09:00:41;;;;;;;3.53;1.95;;;12.60;90.80;;;;;;5054325;28;20044;-66
2022/04/27 09:03:25;;;;;;;2.88;1.83;;;12.70;92.30;;;;;;5055498;28;20194;-66
2022/04/27 09:05:53;;;;;;;2.25;1.90;;;12.70;90.40;;;;;;5054482;28;20133;-66
2022/04/27 09:08:19;;;;;;;4.28;1.92;;;12.70;91.80;;;;;;5056342;28;20148;-66
2022/04/27 09:10:46;;;;;;;3.20;2.33;;;12.70;92.00;;;;;;5056660;28;20048;-66
2022/04/27 09:13:11;;;;;;;2.83;2.05;;;12.60;91.90;;;;;;5056206;28;20044;-66
2022/04/27 09:15:37;;;;;;;5.53;2.78;;;12.60;91.80;;;;;;5055974;28;20055;-66
2022/04/27 09:21:02;;;;;;;3.50;1.95;;;12.50;91.30;;;;;;5058332;28;20099;-66
2022/04/27 09:23:38;;;;;;;3.72;2.13;;;12.40;90.60;;;;;;5077281;28;20040;-66
2022/04/27 09:26:22;;;;;;;4.90;2.00;;;12.50;91.00;;;;;;5074723;28;20062;-66
2022/04/27 09:28:50;;;;;;;3.42;2.10;;;12.50;90.70;;;;;;5076412;28;20146;-65
2022/04/27 09:31:45;;;;;;;2.35;1.70;;;12.50;91.70;;;;;;5075238;28;20059;-66
2022/04/27 09:34:29;;;;;;;3.13;2.25;;;12.60;88.90;;;;;;5057949;28;20060;-65
2022/04/27 09:37:02;;;;;;;2.83;1.70;;;12.40;91.30;;;;;;5074881;28;20048;-65
2022/04/27 09:39:28;;;;;;;3.38;2.28;;;12.50;91.50;;;;;;5076811;28;20373;-65
2022/04/27 09:42:06;;;;;;;1.98;1.80;;;12.70;91.70;;;;;;5075861;28;20146;-65
2022/04/27 09:44:34;;;;;;;4.25;2.10;;;12.70;91.10;;;;;;5076510;28;20058;-65
2022/04/27 09:47:03;;;;;;;3.17;2.13;;;12.80;90.60;;;;;;5075899;28;20063;-65
2022/04/27 09:49:34;;;;;;;4.88;2.33;;;12.90;91.00;;;;;;5074557;28;20054;-66
2022/04/27 09:52:01;;;;;;;3.03;2.35;;;12.80;90.60;;;;;;5076239;28;20685;-65
2022/04/27 09:54:29;;;;;;;5.40;1.95;;;12.80;91.10;;;;;;5076063;28;20048;-65
2022/04/27 09:56:56;;;;;;;2.15;2.03;;;12.70;89.90;;;;;;5075841;28;20035;-65
2022/04/27 09:59:35;;;;;;;8.35;2.60;;;12.60;90.80;;;;;;5075537;28;20047;-65
2022/04/27 10:02:13;;;;;;;7.18;2.75;;;12.60;90.10;;;;;;5074253;28;20048;-66
2022/04/27 10:04:40;;;;;;;3.22;2.33;;;12.30;89.90;;;;;;5075215;28;20071;-65
2022/04/27 10:07:07;;;;;;;5.03;2.60;;;12.30;91.10;;;;;;5076043;28;20063;-65
2022/04/27 10:09:33;;;;;;;2.83;2.40;;;12.20;90.60;;;;;;5074461;28;20048;-65
2022/04/27 10:12:04;;;;;;;4.00;2.17;;;12.30;91.40;;;;;;5074397;28;20052;-65
2022/04/27 10:14:30;;;;;;;5.82;2.42;;;12.50;90.80;;;;;;5075661;28;20526;-65
2022/04/27 10:16:57;;;;;;;4.38;2.35;;;12.70;91.10;;;;;;5073022;28;20036;-64
2022/04/27 10:19:23;;;;;;;4.10;2.15;;;12.80;90.90;;;;;;5076083;28;20090;-65
2022/04/27 10:21:57;;;;;;;2.15;1.95;;;13.00;91.10;;;;;;5074892;28;20058;-64
2022/04/27 10:24:35;;;;;;;4.10;2.03;;;13.10;90.40;;;;;;5073291;28;20582;-65
2022/04/27 10:27:17;;;;;;;4.53;2.00;;;13.00;88.50;;;;;;5075023;28;20052;-65
2022/04/27 10:29:46;;;;;;;6.28;2.63;;;13.10;90.00;;;;;;5074496;28;20116;-65
2022/04/27 10:32:12;;;;;;;2.55;2.35;;;13.20;90.70;;;;;;5075218;28;20071;-65
2022/04/27 10:34:37;;;;;;;5.53;2.83;;;13.20;90.60;;;;;;5073874;28;20150;-65
2022/04/27 10:37:03;;;;;;;3.05;2.53;;;13.00;90.10;;;;;;5073491;28;20051;-65
2022/04/27 10:39:31;;;;;;;2.63;2.20;;;13.10;90.70;;;;;;5075058;28;20036;-64
2022/04/27 10:42:16;;;;;;;9.38;2.70;;;13.20;91.00;;;;;;5074215;28;20056;-65
2022/04/27 10:44:48;;;;;;;5.65;2.30;;;13.00;90.70;;;;;;5074207;28;20048;-64
2022/04/27 10:47:22;;;;;;;5.55;2.45;;;12.90;90.70;;;;;;5074448;28;20920;-65
2022/04/27 10:49:50;;;;;;;4.28;2.15;;;13.00;90.90;;;;;;5073446;28;20052;-65
2022/04/27 10:52:22;;;;;;;4.15;2.28;;;13.20;91.50;;;;;;5074048;28;20701;-64
2022/04/27 10:54:48;;;;;;;3.40;2.20;;;13.30;91.70;;;;;;5075310;28;20126;-64
2022/04/27 10:57:16;;;;;;;3.05;2.33;;;13.30;91.00;;;;;;5072839;28;20833;-65
2022/04/27 10:59:48;;;;;;;4.57;2.50;;;13.10;89.40;;;;;;5074712;28;20083;-65
2022/04/27 11:02:40;;;;;;;6.80;3.13;;;13.10;91.60;;;;;;5075095;28;20295;-64
2022/04/27 11:05:20;;;;;;;4.60;2.60;;;13.10;90.70;;;;;;5075266;28;20058;-64
2022/04/27 11:07:51;;;;;;;5.18;2.80;;;12.90;90.60;;;;;;5075126;28;20079;-65
2022/04/27 11:10:17;;;;;;;3.50;2.67;;;12.80;91.60;;;;;;5074758;28;20079;-65
2022/04/27 11:12:52;;;;;;;8.15;2.88;;;12.90;91.90;;;;;;5074263;28;20051;-65
2022/04/27 11:15:27;;;;;;;9.75;3.47;;;12.70;91.20;;;;;;5073388;28;20057;-65
2022/04/27 11:18:01;;;;;;;7.13;2.97;;;12.80;91.60;;;;;;5073699;28;20607;-65
2022/04/27 11:20:28;;;;;;;6.50;2.80;;;12.90;92.40;;;;;;5075720;28;20040;-65
2022/04/27 11:22:53;;;;;;;7.82;3.75;;;12.80;92.30;;;;;;5073644;28;20922;-64
2022/04/27 11:25:27;;;;;;;7.03;3.13;;;12.30;92.20;;;;;;5074217;28;20040;-65
2022/04/27 11:27:53;;;;;;;6.05;3.28;;;12.30;93.20;;;;;;5074673;28;20105;-65
2022/04/27 11:30:20;;;;;;;9.38;2.72;;;12.40;92.80;;;;;;5072548;28;20083;-64
2022/04/27 11:32:47;;;;;;;7.68;3.35;;;12.30;93.30;;;;;;5073243;28;20036;-65
2022/04/27 11:35:13;;;;;;;7.40;3.10;;;12.50;93.50;;;;;;5073115;28;20815;-65
2022/04/27 11:37:39;;;;;;;4.38;3.03;;;12.60;93.30;;;;;;5075512;28;20131;-64
2022/04/27 11:40:15;;;;;;;9.00;3.63;;;12.70;93.10;;;;;;5076115;28;20052;-64
2022/04/27 11:42:42;;;;;;;5.22;2.72;;;12.70;93.40;;;;;;5077947;28;20500;-65
2022/04/27 11:45:10;;;;;;;4.78;2.60;;;12.80;93.40;;;;;;5078068;28;20319;-64
2022/04/27 11:47:35;;;;;;;6.03;2.38;;;12.90;92.40;;;;;;5076243;28;20105;-65
2022/04/27 11:50:03;;;;;;;14.50;3.50;;;12.90;93.60;;;;;;5077422;28;20407;-64
2022/04/27 11:52:36;;;;;;;4.40;3.00;;;12.70;91.50;;;;;;5077569;28;20052;-64
2022/04/27 11:55:14;;;;;;;12.98;5.75;;;12.70;93.50;;;;;;5077822;28;20048;-64
2022/04/27 11:57:41;;;;;;;7.88;4.45;;;12.40;92.30;;;;;;5077888;28;20217;-64
2022/04/27 12:00:09;;;;;;;4.25;3.20;;;12.30;93.30;;;;;;5076798;28;20090;-65
2022/04/27 12:02:34;;;;;;;5.78;3.22;;;12.20;93.30;;;;;;5076607;28;20868;-64
2022/04/27 12:05:00;;;;;;;9.60;3.20;;;12.20;93.20;;;;;;5077877;28;20060;-64
2022/04/27 12:07:34;;;;;;;6.93;2.85;;;12.20;93.50;;;;;;5076561;28;20681;-64
2022/04/27 12:10:10;;;;;;;5.95;2.72;;;12.30;93.50;;;;;;5077769;28;20707;-64
2022/04/27 12:12:39;;;;;;;6.50;3.15;;;12.20;93.50;;;;;;5076398;28;20075;-64
2022/04/27 12:15:11;;;;;;;9.63;2.95;;;12.10;93.00;;;;;;5075616;28;20812;-65
2022/04/27 12:17:41;;;;;;;7.68;3.63;;;12.20;93.60;;;;;;5078417;28;20055;-65
2022/04/27 12:20:08;;;;;;;4.30;2.80;;;12.30;93.60;;;;;;5078687;28;20339;-64
2022/04/27 12:22:33;;;;;;;6.25;3.17;;;12.40;94.00;;;;;;5076127;28;20048;-64
2022/04/27 12:25:05;;;;;;;4.78;2.97;;;12.30;93.90;;;;;;5075530;28;20124;-65
2022/04/27 12:27:31;;;;;;;8.13;4.20;;;12.30;93.50;;;;;;5076366;28;20605;-64
2022/04/27 12:30:07;;;;;;;7.28;3.10;;;12.20;94.20;;;;;;5075025;28;20075;-65
2022/04/27 12:32:33;;;;;;;6.15;3.65;;;12.20;93.40;;;;;;5077754;28;20117;-64
2022/04/27 12:37:54;;;;;;;5.57;3.08;;;11.90;93.40;;;;;;5077578;28;20051;-64
2022/04/27 12:40:20;;;;;;;7.43;3.38;;;12.00;93.90;;;;;;5075938;28;20060;-64
2022/04/27 12:43:06;;;;;;;11.68;3.85;;;12.00;94.10;;;;;;5075901;28;20040;-64
2022/04/27 12:45:34;;;;;;;7.53;3.70;;;12.10;93.50;;;;;;5077802;28;20423;-64
2022/04/27 12:48:00;;;;;;;5.78;2.67;;;12.10;94.00;;;;;;5076987;28;20051;-65
2022/04/27 12:50:26;;;;;;;7.43;3.05;;;12.20;94.10;;;;;;5077348;28;20707;-64
2022/04/27 12:53:09;;;;;;;7.88;3.25;;;12.10;93.70;;;;;;5077898;28;20040;-64
2022/04/27 12:55:35;;;;;;;6.68;3.13;;;12.30;93.10;;;;;;5076294;28;20055;-64
2022/04/27 12:58:01;;;;;;;4.60;2.85;;;12.30;93.70;;;;;;5076212;28;20824;-64
2022/04/27 13:00:45;;;;;;;4.90;2.85;;;12.60;93.70;;;;;;5077542;28;20044;-64
2022/04/27 13:03:12;;;;;;;4.40;2.65;;;12.60;92.80;;;;;;5077014;28;20162;-65
2022/04/27 13:05:42;;;;;;;9.02;3.47;;;12.80;92.50;;;;;;5075362;28;20048;-65
2022/04/27 13:08:09;;;;;;;4.88;3.40;;;12.90;93.00;;;;;;5077553;28;20044;-65